Language selection

Features

My Weather Profile Weather Topics  | 

Belcher - southern half: Past 24 Hour Conditions

 

Peawanuck Airport

08:00 PM CST 08 December 2019
Disclaimer

This table is a summary of hourly weather conditions for the past 24 hours.
Please note that these observations might not always be representative of weather conditions over their associated marine area.

Date / Time
(CST)
Wind(knots) Conditions Visibility(km) Pressure(kPa) Air tempC) Relative humidity(%) Dew pointC) Wind Chill
08 December 2019
20:00 W 8 gust 15 Clear 16 101.6 -29 69 -33 -40
19:00 W 10 gust 15 Clear 16 101.6 -29 68 -33 -41
18:00 W 11 gust 19 Clear 16 101.5 -29 67 -33 -41
17:00 W 10 gust 17 Clear 16 101.5 -29 67 -33 -41
16:00 W 12 gust 20 Clear 16 101.4 -29 67 -33 -42
15:00 W 11 gust 20 Sunny 16 101.3 -28 67 -32 -41
14:00 W 12 gust 21 Sunny 16 101.2 -27 64 -32 -40
13:00 W 12 gust 20 Sunny 16 101.1 -27 63 -32 -39
12:00 W 11 gust 19 Sunny 16 101.0 -27 63 -32 -39
11:00 W 17 gust 24 Sunny 16 101.0 -27 66 -32 -42
10:00 W 12 gust 24 Sunny 16 100.9 -27 68 -31 -40
9:00 WNW 14 gust 20 Sunny 16 100.8 -27 69 -31 -41
8:00 WNW 14 gust 22 Sunny 16 100.7 -26 71 -30 -40
7:00 WNW 17 gust 23 Clear 16 100.5 -24 72 -28 -38
6:00 WNW 17 gust 24 Clear 16 100.4 -22 74 -26 -36
5:00 WNW 18 gust 24 Light Snow 16 100.3 -19 75 -23 -32
4:00 WNW 13 gust 21 Light Snow 16 100.1 -17 77 -20 -28
3:00 WNW 12 gust 19 Partly Cloudy 16 100.0 -17 77 -20 -27
2:00 WNW 14 gust 19 Mostly Cloudy 16 100.0 -15 76 -19 -26
1:00 WNW 16 gust 23 Light Snow 16 99.9 -13 76 -16 -23
0:00 WNW 13 gust 24 Light Snow 16 99.7 -9 76 -12 -17
07 December 2019
23:00 WSW 11 Light Snow 8 99.7 -7 87 -9 -14
22:00 SSW 11 gust 16 Light Snow 16 99.7 -8 88 -9 -15
21:00 SSW 10 gust 17 Light Snow 4 99.8 -8 88 -10 -15
20:00 SSW 10 gust 19 Cloudy 16 100.0 -8 83 -11 -15

Zoom-in to make a selection

Map of Hudson - Hudson Bay marine weather areas Arviat Airport Baker Lake Airport Chesterfield Inlet Airport Coral Harbour Airport Rankin Inlet Airport Sanikiluaq Airport Whale Cove Airport Cape Dorset Airport Iqaluit Airport Wager Bay Kimmirut Airport Churchill Airport Fort Severn Airport Peawanuck Airport Moosonee Airport Eastmain Airport La Grande Rivière Airport Waskaganish Airport Wemindji Airport Akulivik Airport Inukjuak Airport Ivujivik Airport Kuujjuarapik Airport Puvirnituq Airport Umiujaq Airport Aupaluk Airport Kangiqsujuaq Airport Kangirsuk Airport Kangiqsualujjuaq Airport Kuujjuaq Airport Quaqtaq Airport Salluit Airport Tasiujaq Airport Cape Kakkiviak
Legend:
buoy Buoy
land station Land Station

Hudson - Hudson Bay Area

Another Region

What we are doing

Date modified: